createdAt,value
2018-07-21T00:00:52.203Z,48.00
2018-07-21T00:03:20.397Z,48.20
2018-07-21T00:05:48.549Z,48.20
2018-07-21T00:08:16.669Z,48.10
2018-07-21T00:10:44.897Z,48.20
2018-07-21T00:13:12.995Z,48.30
2018-07-21T00:15:41.157Z,48.50
2018-07-21T00:18:09.361Z,48.60
2018-07-21T00:20:37.505Z,48.60
2018-07-21T00:23:06.169Z,48.70
2018-07-21T00:25:34.280Z,48.80
2018-07-21T00:28:02.387Z,48.70
2018-07-21T00:30:30.519Z,48.60
2018-07-21T00:32:58.756Z,48.70
2018-07-21T00:35:26.944Z,48.80
2018-07-21T00:37:55.363Z,49.00
2018-07-21T00:40:23.491Z,49.00
2018-07-21T00:42:51.601Z,49.30
2018-07-21T00:45:19.746Z,49.50
2018-07-21T00:47:47.945Z,49.50
2018-07-21T00:50:16.137Z,49.90
2018-07-21T00:52:44.278Z,50.10
2018-07-21T00:55:12.417Z,50.40
2018-07-21T01:00:08.690Z,50.60
2018-07-21T01:02:36.955Z,50.70
2018-07-21T01:05:05.335Z,50.70
2018-07-21T01:07:33.495Z,50.70
2018-07-21T01:10:01.595Z,50.80
2018-07-21T01:12:29.703Z,50.80
2018-07-21T01:14:57.803Z,50.90
2018-07-21T01:17:26.153Z,51.00
2018-07-21T01:19:54.438Z,51.00
2018-07-21T01:22:23.498Z,51.20
2018-07-21T01:24:51.652Z,51.30
2018-07-21T01:27:19.777Z,51.40
2018-07-21T01:29:48.011Z,51.40
2018-07-21T01:32:16.201Z,51.60
2018-07-21T01:34:45.204Z,51.70
2018-07-21T01:37:13.352Z,51.90
2018-07-21T01:39:41.519Z,51.90
2018-07-21T01:42:09.730Z,52.10
2018-07-21T01:44:37.976Z,52.10
2018-07-21T01:47:06.239Z,52.10
2018-07-21T01:49:34.422Z,52.20
2018-07-21T01:52:02.746Z,52.90
2018-07-21T01:54:30.973Z,52.20
2018-07-21T01:56:59.244Z,52.40
2018-07-21T02:01:55.350Z,52.60
2018-07-21T02:04:23.480Z,53.20
2018-07-21T02:06:51.587Z,53.50
2018-07-21T02:09:19.721Z,53.90
2018-07-21T02:11:47.916Z,54.00
2018-07-21T02:14:16.081Z,54.30
2018-07-21T02:16:44.289Z,54.50
2018-07-21T02:19:12.367Z,54.60
2018-07-21T02:21:40.455Z,54.80
2018-07-21T02:24:08.586Z,54.90
2018-07-21T02:26:37.402Z,55.00
2018-07-21T02:29:05.513Z,54.80
2018-07-21T02:34:02.572Z,54.90
2018-07-21T02:36:30.831Z,55.00
2018-07-21T02:38:59.049Z,55.20
2018-07-21T02:41:27.276Z,55.40
2018-07-21T02:43:55.421Z,55.60
2018-07-21T02:46:23.798Z,55.60
2018-07-21T02:48:52.010Z,55.70
2018-07-21T02:51:20.273Z,55.80
2018-07-21T02:53:48.405Z,55.90
2018-07-21T02:56:16.553Z,56.00
2018-07-21T03:01:12.684Z,56.20
2018-07-21T03:03:40.772Z,56.30
2018-07-21T03:06:09.205Z,56.40
2018-07-21T03:08:37.337Z,56.40
2018-07-21T03:11:05.496Z,56.40
2018-07-21T03:13:34.817Z,56.50
2018-07-21T03:16:03.533Z,56.50
2018-07-21T03:18:31.681Z,56.50
2018-07-21T03:20:59.775Z,56.70
2018-07-21T03:23:27.935Z,56.80
2018-07-21T03:25:56.097Z,56.90
2018-07-21T03:28:24.362Z,57.10
2018-07-21T03:33:20.786Z,57.20
2018-07-21T03:35:49.683Z,57.30
2018-07-21T03:38:17.923Z,57.20
2018-07-21T03:40:46.594Z,56.90
2018-07-21T03:43:14.696Z,56.50
2018-07-21T03:45:42.800Z,56.40
2018-07-21T03:48:11.060Z,56.10
2018-07-21T03:50:39.402Z,55.80
2018-07-21T03:53:07.604Z,55.50
2018-07-21T03:55:35.834Z,55.40
2018-07-21T03:58:04.348Z,55.30
2018-07-21T04:00:32.525Z,55.30
2018-07-21T04:03:00.617Z,55.10
2018-07-21T04:05:29.526Z,55.00
2018-07-21T04:07:57.715Z,55.00
2018-07-21T04:10:25.805Z,54.90
2018-07-21T04:12:54.005Z,54.70
2018-07-21T04:15:22.085Z,54.50
2018-07-21T04:17:50.257Z,54.40
2018-07-21T04:20:19.185Z,54.40
2018-07-21T04:22:47.337Z,54.40
2018-07-21T04:25:15.577Z,54.20
2018-07-21T04:27:43.664Z,53.70
2018-07-21T04:30:11.739Z,53.50
2018-07-21T04:32:39.871Z,53.20
2018-07-21T04:37:36.067Z,53.80
2018-07-21T04:40:04.232Z,53.20
2018-07-21T04:42:32.365Z,53.20
2018-07-21T04:47:28.827Z,52.80
2018-07-21T04:49:57.033Z,52.60
2018-07-21T04:52:25.137Z,52.40
2018-07-21T04:54:53.220Z,52.40
2018-07-21T04:57:21.337Z,52.50
2018-07-21T04:59:49.673Z,52.40
2018-07-21T05:02:19.135Z,52.60
2018-07-21T05:04:47.917Z,52.80
2018-07-21T05:07:17.233Z,53.00
2018-07-21T05:09:45.732Z,53.20
2018-07-21T05:12:13.859Z,53.10
2018-07-21T05:14:41.984Z,52.90
2018-07-21T05:17:10.153Z,52.70
2018-07-21T05:19:38.231Z,52.60
2018-07-21T05:22:07.317Z,52.10
2018-07-21T05:24:35.744Z,51.40
2018-07-21T05:29:32.713Z,50.30
2018-07-21T05:32:01.026Z,49.60
2018-07-21T05:34:29.764Z,49.00
2018-07-21T05:39:26.171Z,47.60
2018-07-21T05:41:55.410Z,46.90
2018-07-21T05:46:51.540Z,46.00
2018-07-21T05:49:20.140Z,45.20
2018-07-21T05:51:48.874Z,44.60
2018-07-21T05:54:17.729Z,43.90
2018-07-21T05:56:46.047Z,43.30
2018-07-21T05:59:15.462Z,42.60
2018-07-21T06:01:43.778Z,42.10
2018-07-21T06:04:11.917Z,41.20
2018-07-21T06:06:40.041Z,40.70
2018-07-21T06:09:10.278Z,40.00
2018-07-21T06:11:39.440Z,39.80
2018-07-21T06:14:08.508Z,39.50
2018-07-21T06:16:36.890Z,39.30
2018-07-21T06:19:05.395Z,39.20
2018-07-21T06:21:33.602Z,38.30
2018-07-21T06:24:01.716Z,37.60
2018-07-21T06:26:29.911Z,37.90
2018-07-21T06:28:58.061Z,37.90
2018-07-21T06:31:27.237Z,37.40
2018-07-21T06:33:56.520Z,36.80
2018-07-21T06:36:24.657Z,36.80
2018-07-21T06:38:52.908Z,36.30
2018-07-21T06:41:21.357Z,34.90
2018-07-21T06:43:49.500Z,33.90
2018-07-21T06:46:17.699Z,32.60
2018-07-21T06:48:46.188Z,32.70
2018-07-21T06:51:14.407Z,32.70
2018-07-21T06:53:42.814Z,32.20
2018-07-21T06:56:11.766Z,32.40
2018-07-21T06:58:40.528Z,31.20
2018-07-21T07:01:08.791Z,30.00
2018-07-21T07:03:36.928Z,29.80
2018-07-21T07:06:05.288Z,29.30
2018-07-21T07:08:33.459Z,29.30
2018-07-21T07:11:01.652Z,29.40
2018-07-21T07:13:30.033Z,29.40
2018-07-21T07:15:58.212Z,30.00
2018-07-21T07:18:26.476Z,29.10
2018-07-21T07:20:54.838Z,29.30
2018-07-21T07:23:23.902Z,28.50
2018-07-21T07:25:52.086Z,27.80
2018-07-21T07:28:20.209Z,27.70
2018-07-21T07:30:48.432Z,27.60
2018-07-21T07:33:16.540Z,27.60
2018-07-21T07:35:44.746Z,27.90
2018-07-21T07:38:12.929Z,28.10
2018-07-21T07:43:09.275Z,26.80
2018-07-21T07:45:37.512Z,25.70
2018-07-21T07:48:06.602Z,25.00
2018-07-21T07:50:34.841Z,25.00
2018-07-21T07:53:03.078Z,24.50
2018-07-21T07:55:33.231Z,24.40
2018-07-21T07:58:03.077Z,24.00
2018-07-21T08:00:31.359Z,23.80
2018-07-21T08:05:29.655Z,23.00
2018-07-21T08:07:58.719Z,24.10
2018-07-21T08:10:27.302Z,24.70
2018-07-21T08:12:55.491Z,24.70
2018-07-21T08:15:24.344Z,23.80
2018-07-21T08:17:52.475Z,23.10
2018-07-21T08:20:21.219Z,23.50
2018-07-21T08:25:19.569Z,24.20
2018-07-21T08:27:47.763Z,23.80
2018-07-21T08:30:15.913Z,24.70
2018-07-21T08:32:44.073Z,24.40
2018-07-21T08:37:55.767Z,23.40
2018-07-21T08:40:23.972Z,22.80
2018-07-21T08:42:53.046Z,22.80
2018-07-21T08:45:21.232Z,22.10
2018-07-21T08:47:49.368Z,20.90
2018-07-21T08:52:45.552Z,20.70
2018-07-21T08:55:13.808Z,20.90
2018-07-21T08:57:41.949Z,20.40
2018-07-21T09:00:10.090Z,20.10
2018-07-21T09:02:38.292Z,20.00
2018-07-21T09:05:06.840Z,21.10
2018-07-21T09:07:35.040Z,21.30
2018-07-21T09:10:03.806Z,21.90
2018-07-21T09:12:31.962Z,21.30
2018-07-21T09:15:00.069Z,21.00
2018-07-21T09:17:28.176Z,20.90
2018-07-21T09:19:56.342Z,21.80
2018-07-21T09:22:24.543Z,22.40
2018-07-21T09:24:52.742Z,22.90
2018-07-21T09:27:20.932Z,23.00
2018-07-21T09:29:49.244Z,22.70
2018-07-21T09:32:17.506Z,21.80
2018-07-21T09:34:45.671Z,20.60
2018-07-21T09:37:14.577Z,19.60
2018-07-21T09:39:42.736Z,18.40
2018-07-21T09:42:11.001Z,18.20
2018-07-21T09:44:40.293Z,18.00
2018-07-21T09:47:08.533Z,17.60
2018-07-21T09:49:37.748Z,17.70
2018-07-21T09:52:07.001Z,17.80
2018-07-21T09:54:35.259Z,18.40
2018-07-21T09:57:03.511Z,20.60
2018-07-21T09:59:31.687Z,21.20
2018-07-21T10:02:00.013Z,21.90
2018-07-21T10:04:28.247Z,23.00
2018-07-21T10:06:56.501Z,24.00
2018-07-21T10:09:24.673Z,24.50
2018-07-21T10:11:52.948Z,24.90
2018-07-21T10:16:49.571Z,25.30
2018-07-21T10:19:17.669Z,24.90
2018-07-21T10:24:19.763Z,24.70
2018-07-21T10:26:53.543Z,25.20
2018-07-21T10:29:22.518Z,24.60
2018-07-21T10:31:50.764Z,24.10
2018-07-21T10:34:19.340Z,22.80
2018-07-21T10:36:47.484Z,21.50
2018-07-21T10:39:15.679Z,20.70
2018-07-21T10:41:43.960Z,20.80
2018-07-21T10:44:12.178Z,21.70
2018-07-21T10:46:40.453Z,22.40
2018-07-21T10:49:09.193Z,22.80
2018-07-21T10:51:37.264Z,23.00
2018-07-21T10:54:05.846Z,23.50
2018-07-21T10:56:34.937Z,23.30
2018-07-21T11:01:32.510Z,23.70
2018-07-21T11:06:28.850Z,24.00
2018-07-21T11:08:57.065Z,24.20
2018-07-21T11:11:25.292Z,24.90
2018-07-21T11:13:53.536Z,25.00
2018-07-21T11:16:21.817Z,24.60
2018-07-21T11:18:49.929Z,24.10
2018-07-21T11:23:46.218Z,24.10
2018-07-21T11:26:14.358Z,24.60
2018-07-21T11:36:07.068Z,25.00
2018-07-21T11:38:35.149Z,24.90
2018-07-21T11:41:03.405Z,24.50
2018-07-21T11:43:31.617Z,24.00
2018-07-21T11:45:59.849Z,23.70
2018-07-21T11:48:28.135Z,23.20
2018-07-21T11:55:52.718Z,23.40
2018-07-21T11:58:21.020Z,23.30
2018-07-21T12:00:49.271Z,22.90
2018-07-21T12:03:17.487Z,22.50
2018-07-21T12:05:45.708Z,22.50
2018-07-21T12:08:13.981Z,23.10
2018-07-21T12:10:42.219Z,23.60
2018-07-21T12:18:06.988Z,23.90
2018-07-21T12:20:35.813Z,23.50
2018-07-21T12:23:04.062Z,23.80
2018-07-21T12:25:32.238Z,23.80
2018-07-21T12:28:00.437Z,24.10
2018-07-21T12:30:28.540Z,24.20
2018-07-21T12:35:24.773Z,23.40
2018-07-21T12:40:20.962Z,23.40
2018-07-21T12:42:49.116Z,24.10
2018-07-21T12:45:17.342Z,24.40
2018-07-21T12:47:45.520Z,24.40
2018-07-21T12:50:13.786Z,24.60
2018-07-21T12:52:41.973Z,24.50
2018-07-21T12:55:11.245Z,24.30
2018-07-21T12:57:39.291Z,24.30
2018-07-21T13:00:07.495Z,25.00
2018-07-21T13:02:35.721Z,24.90
2018-07-21T13:05:03.893Z,24.60
2018-07-21T13:10:01.168Z,24.60
2018-07-21T13:12:29.544Z,24.60
2018-07-21T13:14:57.708Z,24.50
2018-07-21T13:17:25.948Z,24.40
2018-07-21T13:19:54.131Z,24.40
2018-07-21T13:22:22.488Z,24.50
2018-07-21T13:24:50.638Z,24.80
2018-07-21T13:27:18.829Z,25.10
2018-07-21T13:29:46.953Z,25.60
2018-07-21T13:32:15.162Z,26.20
2018-07-21T13:34:43.948Z,26.40
2018-07-21T13:39:40.270Z,26.60
2018-07-21T13:42:09.484Z,26.30
2018-07-21T13:44:38.259Z,26.10
2018-07-21T13:47:06.505Z,26.00
2018-07-21T13:49:34.619Z,26.30
2018-07-21T13:52:02.831Z,25.70
2018-07-21T13:54:31.041Z,26.90
2018-07-21T13:56:59.364Z,28.40
2018-07-21T14:04:23.789Z,29.10
2018-07-21T14:06:51.915Z,29.00
2018-07-21T14:09:20.016Z,29.40
2018-07-21T14:11:48.204Z,29.70
2018-07-21T14:16:44.637Z,30.50
2018-07-21T14:19:19.881Z,30.30
2018-07-21T14:21:48.057Z,30.70
2018-07-21T14:24:16.271Z,31.20
2018-07-21T14:26:44.471Z,32.50
2018-07-21T14:29:12.841Z,31.80
2018-07-21T14:31:41.075Z,32.30
2018-07-21T14:36:37.608Z,33.90
2018-07-21T14:39:08.521Z,34.80
2018-07-21T14:41:38.033Z,35.60
2018-07-21T14:44:06.266Z,36.10
2018-07-21T14:46:34.446Z,36.40
2018-07-21T14:49:02.730Z,36.20
2018-07-21T14:51:31.894Z,36.20
2018-07-21T14:56:28.112Z,37.50
2018-07-21T14:58:56.619Z,36.90
2018-07-21T15:01:24.849Z,37.00
2018-07-21T15:03:53.196Z,36.70
2018-07-21T15:06:21.409Z,36.30
2018-07-21T15:08:49.603Z,36.10
2018-07-21T15:11:17.789Z,36.10
2018-07-21T15:13:45.903Z,36.10
2018-07-21T15:16:14.076Z,35.70
2018-07-21T15:18:42.326Z,36.30
2018-07-21T15:23:38.593Z,36.30
2018-07-21T15:26:06.803Z,35.90
2018-07-21T15:28:35.927Z,36.10
2018-07-21T15:31:04.767Z,36.70
2018-07-21T15:33:32.817Z,37.20
2018-07-21T15:38:29.069Z,38.10
2018-07-21T15:40:57.274Z,38.40
2018-07-21T15:43:25.559Z,38.60
2018-07-21T15:45:53.671Z,38.80
2018-07-21T15:48:21.831Z,39.20
2018-07-21T15:50:50.012Z,39.70
2018-07-21T15:53:18.215Z,39.50
2018-07-21T15:58:15.485Z,40.80
2018-07-21T16:03:11.895Z,41.80
2018-07-21T16:05:40.202Z,41.90
2018-07-21T16:08:09.151Z,42.30
2018-07-21T16:10:37.562Z,43.30
2018-07-21T16:13:06.190Z,43.00
2018-07-21T16:15:34.424Z,43.00
2018-07-21T16:18:02.538Z,43.40
2018-07-21T16:20:30.728Z,43.40
2018-07-21T16:22:58.817Z,43.60
2018-07-21T16:25:26.933Z,43.40
2018-07-21T16:30:23.122Z,44.50
2018-07-21T16:32:51.252Z,44.50
2018-07-21T16:37:47.614Z,44.50
2018-07-21T16:40:15.799Z,44.50
2018-07-21T16:45:11.902Z,44.80
2018-07-21T16:47:40.011Z,45.20
2018-07-21T16:50:08.306Z,45.20
2018-07-21T16:52:36.529Z,45.30
2018-07-21T16:55:04.912Z,45.50
2018-07-21T16:57:33.077Z,45.80
2018-07-21T17:00:01.315Z,46.10
2018-07-21T17:02:29.533Z,46.40
2018-07-21T17:04:57.937Z,46.60
2018-07-21T17:09:54.211Z,47.50
2018-07-21T17:12:22.369Z,47.80
2018-07-21T17:14:50.729Z,48.00
2018-07-21T17:19:47.466Z,49.00
2018-07-21T17:22:15.615Z,48.50
2018-07-21T17:24:44.081Z,48.70
2018-07-21T17:27:12.422Z,48.90
2018-07-21T17:29:40.660Z,48.90
2018-07-21T17:32:08.918Z,49.00
2018-07-21T17:34:37.115Z,49.30
2018-07-21T17:37:07.292Z,49.50
2018-07-21T17:39:36.390Z,50.10
2018-07-21T17:42:05.905Z,50.30
2018-07-21T17:44:35.025Z,50.40
2018-07-21T17:47:03.312Z,50.40
2018-07-21T17:49:31.647Z,50.50
2018-07-21T17:51:59.936Z,50.50
2018-07-21T17:54:28.143Z,50.80
2018-07-21T17:56:56.358Z,51.10
2018-07-21T17:59:24.637Z,51.10
2018-07-21T18:06:49.434Z,51.60
2018-07-21T18:09:17.945Z,51.70
2018-07-21T18:11:47.139Z,51.90
2018-07-21T18:14:15.393Z,52.10
2018-07-21T18:16:43.581Z,52.10
2018-07-21T18:19:11.787Z,52.10
2018-07-21T18:21:40.086Z,52.30
2018-07-21T18:24:08.325Z,52.50
2018-07-21T18:26:36.505Z,52.60
2018-07-21T18:29:04.708Z,52.80
2018-07-21T18:34:01.757Z,53.10
2018-07-21T18:36:30.077Z,53.40
2018-07-21T18:38:58.343Z,53.50
2018-07-21T18:41:26.543Z,53.80
2018-07-21T18:43:55.643Z,54.00
2018-07-21T18:46:23.823Z,54.20
2018-07-21T18:48:52.571Z,54.20
2018-07-21T18:51:20.888Z,54.30
2018-07-21T18:53:49.069Z,54.40
2018-07-21T18:56:17.278Z,54.70
2018-07-21T18:58:45.558Z,54.80
2018-07-21T19:01:15.777Z,54.90
2018-07-21T19:03:44.524Z,55.00
2018-07-21T19:06:12.914Z,55.10
2018-07-21T19:08:46.820Z,55.40
2018-07-21T19:11:15.015Z,55.40
2018-07-21T19:16:17.323Z,55.90
2018-07-21T19:18:45.819Z,56.10
2018-07-21T19:21:17.267Z,56.20
2018-07-21T19:23:46.200Z,56.30
2018-07-21T19:26:19.944Z,56.50
2018-07-21T19:31:16.647Z,56.70
2018-07-21T19:33:45.841Z,57.10
2018-07-21T19:36:13.995Z,57.50
2018-07-21T19:38:42.791Z,57.70
2018-07-21T19:41:16.599Z,58.00
2018-07-21T19:43:45.255Z,58.30
2018-07-21T19:46:13.439Z,58.70
2018-07-21T19:48:41.731Z,58.80
2018-07-21T19:51:10.795Z,59.00
2018-07-21T19:53:38.931Z,59.20
2018-07-21T19:56:07.179Z,59.60
2018-07-21T19:58:35.757Z,59.70
2018-07-21T20:01:03.971Z,59.90
2018-07-21T20:03:34.441Z,60.10
2018-07-21T20:06:02.881Z,60.50
2018-07-21T20:08:31.333Z,60.60
2018-07-21T20:10:59.555Z,60.90
2018-07-21T20:13:27.757Z,61.20
2018-07-21T20:15:56.030Z,61.50
2018-07-21T20:20:52.558Z,62.30
2018-07-21T20:23:21.268Z,62.40
2018-07-21T20:28:18.501Z,62.90
2018-07-21T20:30:46.877Z,63.90
2018-07-21T20:33:15.094Z,63.30
2018-07-21T20:38:12.292Z,64.40
2018-07-21T20:40:41.988Z,63.60
2018-07-21T20:43:10.201Z,63.60
2018-07-21T20:45:38.344Z,63.60
2018-07-21T20:48:06.725Z,63.80
2018-07-21T20:50:34.920Z,63.80
2018-07-21T20:53:03.218Z,63.60
2018-07-21T20:55:32.121Z,63.60
2018-07-21T20:58:01.595Z,63.70
2018-07-21T21:00:31.394Z,63.60
2018-07-21T21:03:00.174Z,63.60
2018-07-21T21:05:29.098Z,63.50
2018-07-21T21:07:57.367Z,63.30
2018-07-21T21:10:25.653Z,63.20
2018-07-21T21:12:54.486Z,63.30
2018-07-21T21:17:50.665Z,62.70
2018-07-21T21:20:18.905Z,62.60
2018-07-21T21:25:15.281Z,62.60
2018-07-21T21:27:43.751Z,62.40
2018-07-21T21:30:11.867Z,62.30
2018-07-21T21:32:40.071Z,62.30
2018-07-21T21:35:08.316Z,62.30
2018-07-21T21:37:36.994Z,62.30
2018-07-21T21:40:06.134Z,62.30
2018-07-21T21:42:36.433Z,62.40
2018-07-21T21:45:04.893Z,62.40
2018-07-21T21:47:33.653Z,62.40
2018-07-21T21:50:01.791Z,62.50
2018-07-21T21:52:29.953Z,62.50
2018-07-21T21:54:58.195Z,62.60
2018-07-21T21:57:26.733Z,62.70
2018-07-21T21:59:54.974Z,62.70
2018-07-21T22:02:23.361Z,62.80
2018-07-21T22:04:51.859Z,62.90
2018-07-21T22:07:21.167Z,62.90
2018-07-21T22:09:50.243Z,62.90
2018-07-21T22:12:18.688Z,63.00
2018-07-21T22:14:47.265Z,63.30
2018-07-21T22:17:16.346Z,63.40
2018-07-21T22:22:13.339Z,63.50
2018-07-21T22:24:41.592Z,63.60
2018-07-21T22:27:09.839Z,64.00
2018-07-21T22:29:39.022Z,64.40
2018-07-21T22:32:07.272Z,64.70
2018-07-21T22:34:36.492Z,65.00
2018-07-21T22:37:04.790Z,65.40
2018-07-21T22:39:34.110Z,65.90
2018-07-21T22:42:02.956Z,66.20
2018-07-21T22:44:31.577Z,67.10
2018-07-21T22:47:00.515Z,66.70
2018-07-21T22:49:28.685Z,66.30
2018-07-21T22:51:56.941Z,66.70
2018-07-21T22:54:25.256Z,66.60
2018-07-21T22:56:53.513Z,67.60
2018-07-21T22:59:21.724Z,67.00
2018-07-21T23:01:49.900Z,67.30
2018-07-21T23:04:18.126Z,67.40
2018-07-21T23:06:46.433Z,67.70
2018-07-21T23:09:14.723Z,67.60
2018-07-21T23:11:43.174Z,67.80
2018-07-21T23:14:11.943Z,68.10
2018-07-21T23:19:08.910Z,68.40
2018-07-21T23:21:37.102Z,68.40
2018-07-21T23:24:06.419Z,68.70
2018-07-21T23:26:34.837Z,69.40
2018-07-21T23:29:03.093Z,69.10
2018-07-21T23:31:31.962Z,69.60
2018-07-21T23:34:00.149Z,69.70
2018-07-21T23:36:28.385Z,69.80
2018-07-21T23:41:24.873Z,70.10
2018-07-21T23:43:53.797Z,70.20
2018-07-21T23:46:22.470Z,70.40
2018-07-21T23:48:50.725Z,70.60
2018-07-21T23:51:19.007Z,70.60
2018-07-21T23:53:47.274Z,70.80
2018-07-21T23:56:16.387Z,71.00
2018-07-21T23:58:45.823Z,71.10
